Time;durP1;ratioP1;P1;durP2;ratioP2;P2;SDS_P1;SDS_P2;PMS_P1;PMS_P2;Temp;Humidity;BMP_temperature;BMP_pressure;BME280_temperature;BME280_humidity;BME280_pressure;Samples;Min_cycle;Max_cycle;Signal;HPM_P1;HPM_P2
2023/06/11 00:01:42;;;;;;;5.30;4.85;;;;;;;;;;5083046;28;20258;-70
2023/06/11 00:04:08;;;;;;;5.32;5.03;;;;;;;;;;5083031;28;20203;-69
2023/06/11 00:06:35;;;;;;;5.35;4.85;;;;;;;;;;5082489;28;20200;-69
2023/06/11 00:09:03;;;;;;;5.63;5.28;;;;;;;;;;5082912;28;20214;-69
2023/06/11 00:11:29;;;;;;;4.93;4.60;;;;;;;;;;5082580;28;20203;-69
2023/06/11 00:13:55;;;;;;;5.78;5.40;;;;;;;;;;5082641;28;20216;-69
2023/06/11 00:16:21;;;;;;;6.32;5.68;;;;;;;;;;5082330;28;20200;-69
2023/06/11 00:18:48;;;;;;;5.50;5.00;;;;;;;;;;5082900;28;20238;-69
2023/06/11 00:21:14;;;;;;;5.10;4.80;;;;;;;;;;5082551;28;20258;-69
2023/06/11 00:23:40;;;;;;;5.10;4.80;;;;;;;;;;5082507;28;20200;-69
2023/06/11 00:26:08;;;;;;;4.95;4.65;;;;;;;;;;5082357;28;20204;-69
2023/06/11 00:28:34;;;;;;;5.35;5.00;;;;;;;;;;5082234;28;20220;-69
2023/06/11 00:31:01;;;;;;;5.15;4.85;;;;;;;;;;5082611;28;20203;-69
2023/06/11 00:33:27;;;;;;;5.22;4.93;;;;;;;;;;5082161;28;20204;-69
2023/06/11 00:35:54;;;;;;;5.20;5.00;;;;;;;;;;5082438;28;20204;-69
2023/06/11 00:38:20;;;;;;;5.65;5.22;;;;;;;;;;5081857;28;20242;-69
2023/06/11 00:40:46;;;;;;;5.55;5.25;;;;;;;;;;5082074;28;20216;-69
2023/06/11 00:43:17;;;;;;;5.85;5.55;;;;;;;;;;5082304;28;20204;-69
2023/06/11 00:45:44;;;;;;;5.43;5.03;;;;;;;;;;5082095;28;20200;-69
2023/06/11 00:48:10;;;;;;;7.00;5.53;;;;;;;;;;5081871;28;20207;-69
2023/06/11 00:50:45;;;;;;;5.50;5.10;;;;;;;;;;5081969;28;20201;-69
2023/06/11 00:53:11;;;;;;;5.57;5.28;;;;;;;;;;5082028;28;20199;-69
2023/06/11 00:55:37;;;;;;;5.60;5.22;;;;;;;;;;5082175;28;20261;-69
2023/06/11 00:58:04;;;;;;;5.88;5.47;;;;;;;;;;5081474;28;20435;-69
2023/06/11 01:00:33;;;;;;;5.80;5.30;;;;;;;;;;5081937;28;20283;-69
2023/06/11 01:03:07;;;;;;;5.60;5.30;;;;;;;;;;5082031;28;20207;-69
2023/06/11 01:05:43;;;;;;;5.65;5.25;;;;;;;;;;5081934;28;20403;-69
2023/06/11 01:08:09;;;;;;;5.68;5.38;;;;;;;;;;5081711;28;20208;-69
2023/06/11 01:10:35;;;;;;;5.80;5.50;;;;;;;;;;5081913;28;20500;-69
2023/06/11 01:13:01;;;;;;;6.15;5.65;;;;;;;;;;5081845;28;20200;-69
2023/06/11 01:15:28;;;;;;;6.07;5.60;;;;;;;;;;5082079;28;20197;-69
2023/06/11 01:17:57;;;;;;;5.63;5.30;;;;;;;;;;5081780;28;20238;-69
2023/06/11 01:20:34;;;;;;;6.20;5.70;;;;;;;;;;5081501;28;20219;-69
2023/06/11 01:23:17;;;;;;;5.82;5.53;;;;;;;;;;5081998;28;20204;-69
2023/06/11 01:25:48;;;;;;;6.20;5.70;;;;;;;;;;5081758;28;20218;-69
2023/06/11 01:28:19;;;;;;;7.63;5.85;;;;;;;;;;5081529;28;20216;-69
2023/06/11 01:30:48;;;;;;;6.28;5.88;;;;;;;;;;5081569;28;20197;-69
2023/06/11 01:33:14;;;;;;;6.55;5.95;;;;;;;;;;5082130;28;20211;-69
2023/06/11 01:35:41;;;;;;;6.78;6.18;;;;;;;;;;5081863;28;20200;-69
2023/06/11 01:38:08;;;;;;;7.03;6.53;;;;;;;;;;5081596;28;20204;-69
2023/06/11 01:40:35;;;;;;;7.25;6.65;;;;;;;;;;5081392;28;20216;-69
2023/06/11 01:43:02;;;;;;;6.00;5.60;;;;;;;;;;5081592;28;20223;-69
2023/06/11 01:45:32;;;;;;;6.78;6.28;;;;;;;;;;5081398;28;20500;-69
2023/06/11 01:47:58;;;;;;;6.32;5.82;;;;;;;;;;5081537;28;20557;-69
2023/06/11 01:50:25;;;;;;;6.60;6.20;;;;;;;;;;5081588;28;20192;-69
2023/06/11 01:52:51;;;;;;;5.93;5.63;;;;;;;;;;5081593;28;20196;-69
2023/06/11 01:55:17;;;;;;;6.68;6.18;;;;;;;;;;5081586;28;20201;-69
2023/06/11 01:57:44;;;;;;;6.68;6.10;;;;;;;;;;5080630;28;20565;-69
2023/06/11 02:00:11;;;;;;;7.60;6.15;;;;;;;;;;5081368;28;20203;-69
2023/06/11 02:02:39;;;;;;;7.18;6.38;;;;;;;;;;5081356;28;20204;-69
2023/06/11 02:05:06;;;;;;;6.70;6.20;;;;;;;;;;5081417;28;20205;-69
2023/06/11 02:07:32;;;;;;;7.25;6.55;;;;;;;;;;5080801;28;20436;-69
2023/06/11 02:09:58;;;;;;;7.15;6.65;;;;;;;;;;5082456;28;20394;-69
2023/06/11 02:12:24;;;;;;;6.63;6.13;;;;;;;;;;5085196;28;20440;-69
2023/06/11 02:14:51;;;;;;;6.13;5.65;;;;;;;;;;5076889;28;20430;-69
2023/06/11 02:17:17;;;;;;;7.95;6.32;;;;;;;;;;5084710;28;20196;-69
2023/06/11 02:19:44;;;;;;;9.30;6.70;;;;;;;;;;5084905;28;20209;-69
2023/06/11 02:22:11;;;;;;;6.03;5.63;;;;;;;;;;5085204;28;20216;-69
2023/06/11 02:24:37;;;;;;;6.55;6.05;;;;;;;;;;5085091;28;20200;-69
2023/06/11 02:27:03;;;;;;;6.10;5.80;;;;;;;;;;5084655;28;20366;-69
2023/06/11 02:29:30;;;;;;;6.22;5.70;;;;;;;;;;5084743;28;20197;-69
2023/06/11 02:31:56;;;;;;;6.78;6.28;;;;;;;;;;5084718;28;20192;-69
2023/06/11 02:34:22;;;;;;;6.07;5.57;;;;;;;;;;5084575;28;20195;-69
2023/06/11 02:36:50;;;;;;;6.13;5.63;;;;;;;;;;5084292;28;20230;-69
2023/06/11 02:39:16;;;;;;;6.13;5.72;;;;;;;;;;5084527;28;20275;-69
2023/06/11 02:41:42;;;;;;;6.05;5.65;;;;;;;;;;5084476;28;20392;-69
2023/06/11 02:44:09;;;;;;;5.97;5.57;;;;;;;;;;5084577;28;20395;-69
2023/06/11 02:46:35;;;;;;;6.57;5.97;;;;;;;;;;5084196;28;20250;-69
2023/06/11 02:49:01;;;;;;;5.72;5.30;;;;;;;;;;5084226;28;20225;-69
2023/06/11 02:51:27;;;;;;;6.13;5.63;;;;;;;;;;5084418;28;20200;-69
2023/06/11 02:53:55;;;;;;;6.30;5.80;;;;;;;;;;5084610;28;20200;-69
2023/06/11 02:56:21;;;;;;;6.30;5.90;;;;;;;;;;5084077;28;20211;-69
2023/06/11 02:58:49;;;;;;;5.97;5.57;;;;;;;;;;5084308;28;20205;-69
2023/06/11 03:01:15;;;;;;;6.53;6.07;;;;;;;;;;5084232;28;20535;-69
2023/06/11 03:03:41;;;;;;;6.63;6.13;;;;;;;;;;5083908;28;20204;-69
2023/06/11 03:06:07;;;;;;;6.18;5.70;;;;;;;;;;5084247;28;20196;-69
2023/06/11 03:08:34;;;;;;;5.72;5.45;;;;;;;;;;5083946;28;20201;-69
2023/06/11 03:11:02;;;;;;;5.47;5.00;;;;;;;;;;5084096;28;20529;-69
2023/06/11 03:13:28;;;;;;;6.00;5.50;;;;;;;;;;5083883;28;20420;-69
2023/06/11 03:15:55;;;;;;;5.68;5.28;;;;;;;;;;5083969;28;20268;-69
2023/06/11 03:18:21;;;;;;;5.97;5.50;;;;;;;;;;5083670;28;20207;-69
2023/06/11 03:20:47;;;;;;;5.90;5.45;;;;;;;;;;5083337;28;20220;-69
2023/06/11 03:23:14;;;;;;;5.75;5.15;;;;;;;;;;5083944;28;20235;-69
2023/06/11 03:25:40;;;;;;;5.47;5.18;;;;;;;;;;5083714;28;20519;-69
2023/06/11 03:28:08;;;;;;;5.78;5.43;;;;;;;;;;5083926;28;20231;-69
2023/06/11 03:30:34;;;;;;;5.63;5.32;;;;;;;;;;5083501;28;20507;-69
2023/06/11 03:33:00;;;;;;;5.70;5.20;;;;;;;;;;5083843;28;20511;-69
2023/06/11 03:35:26;;;;;;;5.47;4.70;;;;;;;;;;5083668;28;20235;-69
2023/06/11 03:37:52;;;;;;;5.28;4.97;;;;;;;;;;5083267;28;20196;-69
2023/06/11 03:40:20;;;;;;;5.50;5.20;;;;;;;;;;5083582;28;20564;-69
2023/06/11 03:42:46;;;;;;;5.78;5.47;;;;;;;;;;5083221;28;20539;-69
2023/06/11 03:45:14;;;;;;;5.80;5.40;;;;;;;;;;5083317;28;20764;-69
2023/06/11 03:47:40;;;;;;;6.35;5.95;;;;;;;;;;5083124;28;20225;-69
2023/06/11 03:50:07;;;;;;;5.75;5.18;;;;;;;;;;5083420;28;20398;-69
2023/06/11 03:52:33;;;;;;;5.82;5.35;;;;;;;;;;5083195;28;20208;-69
2023/06/11 03:55:00;;;;;;;5.72;5.30;;;;;;;;;;5083093;28;20196;-69
2023/06/11 03:57:26;;;;;;;5.85;5.45;;;;;;;;;;5082742;28;20204;-69
2023/06/11 03:59:52;;;;;;;6.22;5.82;;;;;;;;;;5082944;28;20197;-69
2023/06/11 04:02:20;;;;;;;6.00;5.60;;;;;;;;;;5083398;28;20216;-69
2023/06/11 04:04:46;;;;;;;6.85;6.30;;;;;;;;;;5082941;28;20213;-69
2023/06/11 04:07:12;;;;;;;6.50;5.95;;;;;;;;;;5082742;28;20241;-69
2023/06/11 04:09:38;;;;;;;6.18;5.85;;;;;;;;;;5082960;28;20197;-69
2023/06/11 04:12:05;;;;;;;5.80;5.43;;;;;;;;;;5082782;28;20231;-69
2023/06/11 04:14:31;;;;;;;6.55;5.88;;;;;;;;;;5082717;28;20201;-69
2023/06/11 04:16:58;;;;;;;6.18;5.78;;;;;;;;;;5082636;28;20201;-71
2023/06/11 04:19:25;;;;;;;6.30;5.93;;;;;;;;;;5082735;28;20200;-71
2023/06/11 04:21:52;;;;;;;6.28;5.82;;;;;;;;;;5082525;28;20223;-71
2023/06/11 04:24:18;;;;;;;7.18;6.57;;;;;;;;;;5082638;28;20204;-71
2023/06/11 04:26:46;;;;;;;6.63;6.13;;;;;;;;;;5082180;28;20209;-71
2023/06/11 04:29:13;;;;;;;6.43;5.93;;;;;;;;;;5082564;28;20519;-71
2023/06/11 04:31:41;;;;;;;7.50;6.82;;;;;;;;;;5082404;28;20192;-71
2023/06/11 04:34:08;;;;;;;6.43;5.95;;;;;;;;;;5081914;28;20424;-71
2023/06/11 04:36:38;;;;;;;6.35;5.88;;;;;;;;;;5081980;28;20227;-71
2023/06/11 04:39:04;;;;;;;6.95;6.45;;;;;;;;;;5082390;28;20367;-71
2023/06/11 04:41:31;;;;;;;6.43;6.03;;;;;;;;;;5082123;28;20451;-71
2023/06/11 04:44:00;;;;;;;7.15;6.65;;;;;;;;;;5082443;28;20227;-71
2023/06/11 04:46:26;;;;;;;6.78;6.30;;;;;;;;;;5081903;28;20249;-71
2023/06/11 04:48:53;;;;;;;7.05;6.40;;;;;;;;;;5082082;28;20227;-71
2023/06/11 04:51:20;;;;;;;7.25;6.65;;;;;;;;;;5082214;28;20192;-71
2023/06/11 04:53:52;;;;;;;6.55;6.15;;;;;;;;;;5082090;28;20653;-71
2023/06/11 04:56:18;;;;;;;6.57;6.03;;;;;;;;;;5082094;28;20519;-71
2023/06/11 04:58:44;;;;;;;7.00;6.40;;;;;;;;;;5082108;28;20207;-71
2023/06/11 05:01:12;;;;;;;6.53;6.03;;;;;;;;;;5082168;28;20197;-71
2023/06/11 05:03:38;;;;;;;6.55;6.07;;;;;;;;;;5081811;28;20196;-71
2023/06/11 05:06:05;;;;;;;7.72;6.90;;;;;;;;;;5081959;28;20242;-71
2023/06/11 05:08:32;;;;;;;7.18;6.75;;;;;;;;;;5082054;28;20200;-71
2023/06/11 05:11:00;;;;;;;7.25;6.55;;;;;;;;;;5082104;28;20200;-71
2023/06/11 05:13:26;;;;;;;7.18;6.68;;;;;;;;;;5081911;28;20504;-71
2023/06/11 05:15:52;;;;;;;7.72;7.10;;;;;;;;;;5082092;28;20518;-71
2023/06/11 05:18:19;;;;;;;6.53;6.05;;;;;;;;;;5081725;28;20197;-71
2023/06/11 05:20:47;;;;;;;7.25;6.65;;;;;;;;;;5081803;28;20243;-71
2023/06/11 05:23:14;;;;;;;6.45;5.95;;;;;;;;;;5081557;28;20222;-71
2023/06/11 05:25:46;;;;;;;6.50;5.90;;;;;;;;;;5081613;28;20203;-71
2023/06/11 05:28:14;;;;;;;6.72;6.13;;;;;;;;;;5081642;28;20216;-71
2023/06/11 05:30:43;;;;;;;6.80;6.30;;;;;;;;;;5081948;28;20222;-71
2023/06/11 05:33:10;;;;;;;6.22;5.82;;;;;;;;;;5081625;28;20199;-71
2023/06/11 05:35:36;;;;;;;6.10;5.70;;;;;;;;;;5081597;28;20204;-71
2023/06/11 05:38:03;;;;;;;6.68;6.13;;;;;;;;;;5073812;28;20204;-71
2023/06/11 05:40:29;;;;;;;6.97;6.47;;;;;;;;;;5081645;28;20250;-71
2023/06/11 05:42:56;;;;;;;13.45;10.95;;;;;;;;;;5081478;28;20231;-71
2023/06/11 05:45:25;;;;;;;7.78;6.50;;;;;;;;;;5085168;28;20238;-71
2023/06/11 05:47:51;;;;;;;6.65;6.07;;;;;;;;;;5085434;28;20205;-71
2023/06/11 05:50:17;;;;;;;6.50;5.93;;;;;;;;;;5085468;28;20204;-71
2023/06/11 05:52:43;;;;;;;5.50;5.20;;;;;;;;;;5085566;28;20399;-71
2023/06/11 05:55:10;;;;;;;6.43;5.57;;;;;;;;;;5085884;28;20196;-71
2023/06/11 05:57:36;;;;;;;6.00;5.50;;;;;;;;;;5085172;28;20205;-71
2023/06/11 06:00:02;;;;;;;6.28;5.88;;;;;;;;;;5085488;28;20242;-71
2023/06/11 06:02:30;;;;;;;5.38;5.07;;;;;;;;;;5085361;28;20607;-71
2023/06/11 06:04:56;;;;;;;7.50;5.68;;;;;;;;;;5085259;28;20200;-71
2023/06/11 06:07:23;;;;;;;5.45;5.05;;;;;;;;;;5085121;28;20204;-71
2023/06/11 06:09:49;;;;;;;5.20;4.90;;;;;;;;;;5085470;28;20216;-71
2023/06/11 06:12:15;;;;;;;5.47;5.07;;;;;;;;;;5085892;28;20196;-71
2023/06/11 06:14:42;;;;;;;5.65;5.15;;;;;;;;;;5085241;28;20222;-71
2023/06/11 06:17:08;;;;;;;5.93;5.53;;;;;;;;;;5085028;28;20192;-71
2023/06/11 06:19:35;;;;;;;4.68;4.43;;;;;;;;;;5085160;28;20204;-71
2023/06/11 06:22:02;;;;;;;4.88;4.50;;;;;;;;;;5085269;28;20257;-71
2023/06/11 06:24:28;;;;;;;5.03;4.72;;;;;;;;;;5085157;28;20207;-71
2023/06/11 06:26:56;;;;;;;5.22;4.82;;;;;;;;;;5084744;28;20200;-71
2023/06/11 06:29:22;;;;;;;5.00;4.60;;;;;;;;;;5085078;28;20413;-71
2023/06/11 06:31:48;;;;;;;4.80;4.53;;;;;;;;;;5085199;28;20204;-71
2023/06/11 06:34:15;;;;;;;6.32;5.25;;;;;;;;;;5085066;28;20216;-71
2023/06/11 06:36:42;;;;;;;5.18;4.88;;;;;;;;;;5084735;28;20204;-71
2023/06/11 06:39:09;;;;;;;4.80;4.40;;;;;;;;;;5084811;28;20196;-71
2023/06/11 06:41:35;;;;;;;4.95;4.68;;;;;;;;;;5084688;28;20231;-71
2023/06/11 06:44:01;;;;;;;5.28;4.78;;;;;;;;;;5084550;28;20212;-71
2023/06/11 06:46:28;;;;;;;5.15;4.68;;;;;;;;;;5084429;28;20205;-71
2023/06/11 06:48:54;;;;;;;4.85;4.55;;;;;;;;;;5084630;28;20508;-71
2023/06/11 06:51:20;;;;;;;7.47;5.13;;;;;;;;;;5084709;28;20242;-71
2023/06/11 06:53:48;;;;;;;10.93;9.90;;;;;;;;;;5084626;28;20242;-71
2023/06/11 06:56:14;;;;;;;5.20;4.90;;;;;;;;;;5083990;28;20496;-71
2023/06/11 06:58:41;;;;;;;10.10;9.13;;;;;;;;;;5084227;28;20231;-71
2023/06/11 07:01:07;;;;;;;13.27;9.95;;;;;;;;;;5084356;28;20211;-71
2023/06/11 07:03:34;;;;;;;6.68;6.10;;;;;;;;;;5084519;28;20216;-71
2023/06/11 07:06:00;;;;;;;5.65;5.10;;;;;;;;;;5084194;28;20200;-71
2023/06/11 07:08:26;;;;;;;6.82;6.30;;;;;;;;;;5084054;28;20381;-71
2023/06/11 07:10:55;;;;;;;6.40;5.50;;;;;;;;;;5084382;28;20208;-71
2023/06/11 07:13:21;;;;;;;5.07;4.70;;;;;;;;;;5084304;28;20199;-71
2023/06/11 07:15:47;;;;;;;5.30;4.90;;;;;;;;;;5083948;28;20500;-71
2023/06/11 07:18:14;;;;;;;5.72;5.20;;;;;;;;;;5084299;28;20208;-71
2023/06/11 07:20:40;;;;;;;6.30;5.80;;;;;;;;;;5084285;28;20257;-71
2023/06/11 07:23:06;;;;;;;7.38;6.63;;;;;;;;;;5084263;28;20212;-71
2023/06/11 07:25:33;;;;;;;5.85;5.25;;;;;;;;;;5084115;28;20512;-71
2023/06/11 07:28:01;;;;;;;9.88;8.70;;;;;;;;;;5083586;28;20220;-71
2023/06/11 07:30:28;;;;;;;5.45;5.15;;;;;;;;;;5083871;28;20242;-71
2023/06/11 07:32:54;;;;;;;4.88;4.47;;;;;;;;;;5083888;28;20450;-71
2023/06/11 07:35:21;;;;;;;4.97;4.47;;;;;;;;;;5084039;28;20206;-71
2023/06/11 07:37:47;;;;;;;7.22;6.10;;;;;;;;;;5083313;28;20200;-71
2023/06/11 07:40:14;;;;;;;5.22;4.82;;;;;;;;;;5083692;28;20196;-71
2023/06/11 07:42:40;;;;;;;4.97;4.68;;;;;;;;;;5083592;28;20235;-71
2023/06/11 07:45:08;;;;;;;4.45;4.15;;;;;;;;;;5083284;28;20246;-71
2023/06/11 07:47:35;;;;;;;7.00;6.40;;;;;;;;;;5075278;28;20196;-71
2023/06/11 07:50:01;;;;;;;4.22;4.05;;;;;;;;;;5083302;28;20206;-71
2023/06/11 07:52:28;;;;;;;5.05;4.65;;;;;;;;;;5083188;28;20255;-71
2023/06/11 07:54:54;;;;;;;6.47;5.28;;;;;;;;;;5083112;28;20199;-71
2023/06/11 07:57:20;;;;;;;4.72;4.40;;;;;;;;;;5082877;28;20196;-71
2023/06/11 07:59:47;;;;;;;5.18;4.70;;;;;;;;;;5082973;28;20208;-71
2023/06/11 08:02:15;;;;;;;4.93;4.55;;;;;;;;;;5083354;28;20484;-71
2023/06/11 08:04:41;;;;;;;5.00;4.68;;;;;;;;;;5083058;28;20199;-71
2023/06/11 08:07:08;;;;;;;7.72;6.95;;;;;;;;;;5082518;28;20204;-71
2023/06/11 08:09:35;;;;;;;4.38;3.97;;;;;;;;;;5083047;28;20196;-71
2023/06/11 08:12:01;;;;;;;4.93;4.40;;;;;;;;;;5082628;28;20200;-71
2023/06/11 08:14:27;;;;;;;4.30;4.07;;;;;;;;;;5082902;28;20203;-71
2023/06/11 08:16:54;;;;;;;5.20;4.80;;;;;;;;;;5082570;28;20200;-58
2023/06/11 08:19:21;;;;;;;5.00;4.70;;;;;;;;;;5082739;28;20267;-58
2023/06/11 08:21:47;;;;;;;6.03;5.53;;;;;;;;;;5082524;28;20206;-57
2023/06/11 08:24:14;;;;;;;4.90;4.60;;;;;;;;;;5082516;28;20223;-58
2023/06/11 08:26:40;;;;;;;5.45;4.00;;;;;;;;;;5082218;28;20203;-58
2023/06/11 08:29:06;;;;;;;6.18;4.10;;;;;;;;;;5082426;28;20232;-58
2023/06/11 08:31:33;;;;;;;5.70;4.20;;;;;;;;;;5082538;28;20203;-58
2023/06/11 08:33:59;;;;;;;6.68;3.58;;;;;;;;;;5082346;28;20534;-58
2023/06/11 08:36:27;;;;;;;4.10;3.90;;;;;;;;;;5082099;28;20407;-58
2023/06/11 08:38:53;;;;;;;3.78;3.67;;;;;;;;;;5082208;28;20199;-57
2023/06/11 08:41:20;;;;;;;4.18;3.95;;;;;;;;;;5082282;28;20207;-58
2023/06/11 08:43:46;;;;;;;4.80;4.13;;;;;;;;;;5082266;28;20226;-58
2023/06/11 08:46:13;;;;;;;3.72;3.50;;;;;;;;;;5074142;28;20511;-57
2023/06/11 08:48:41;;;;;;;4.22;3.38;;;;;;;;;;5082473;28;20195;-58
2023/06/11 08:51:09;;;;;;;4.13;3.83;;;;;;;;;;5082067;28;20219;-58
2023/06/11 08:53:37;;;;;;;3.60;3.30;;;;;;;;;;5082013;28;20191;-58
2023/06/11 08:56:04;;;;;;;3.65;3.45;;;;;;;;;;5081916;28;20267;-58
2023/06/11 08:58:31;;;;;;;3.85;3.65;;;;;;;;;;5081959;28;20445;-58
2023/06/11 09:00:57;;;;;;;4.00;3.70;;;;;;;;;;5081934;28;20207;-58
2023/06/11 09:03:24;;;;;;;3.45;3.15;;;;;;;;;;5081918;28;20211;-58
2023/06/11 09:05:50;;;;;;;4.20;3.70;;;;;;;;;;5081743;28;20246;-58
2023/06/11 09:08:16;;;;;;;5.45;3.85;;;;;;;;;;5081446;28;20208;-58
2023/06/11 09:10:50;;;;;;;4.65;4.18;;;;;;;;;;5081776;28;20200;-58
2023/06/11 09:13:16;;;;;;;4.15;3.83;;;;;;;;;;5073982;28;20207;-58
2023/06/11 09:15:46;;;;;;;4.25;3.85;;;;;;;;;;5081722;28;20207;-57
2023/06/11 09:18:13;;;;;;;3.70;3.50;;;;;;;;;;5081323;28;20203;-56
2023/06/11 09:20:39;;;;;;;10.80;3.67;;;;;;;;;;5081655;28;20530;-58
2023/06/11 09:23:05;;;;;;;6.18;3.75;;;;;;;;;;5081643;28;20223;-57
2023/06/11 09:25:33;;;;;;;4.00;3.70;;;;;;;;;;5081915;28;20264;-58
2023/06/11 09:28:05;;;;;;;3.67;3.45;;;;;;;;;;5081377;28;20234;-58
2023/06/11 09:30:32;;;;;;;5.13;3.80;;;;;;;;;;5081943;28;20238;-58
2023/06/11 09:32:58;;;;;;;6.28;3.80;;;;;;;;;;5081596;28;20203;-58
2023/06/11 09:35:24;;;;;;;4.95;3.90;;;;;;;;;;5081482;28;20222;-58
2023/06/11 09:37:51;;;;;;;6.00;4.00;;;;;;;;;;5081322;28;20245;-58
2023/06/11 09:40:19;;;;;;;5.82;4.05;;;;;;;;;;5081787;28;20522;-57
2023/06/11 09:42:45;;;;;;;6.82;3.80;;;;;;;;;;5081458;28;20227;-58
2023/06/11 09:45:17;;;;;;;4.10;3.70;;;;;;;;;;5081378;28;20428;-58
2023/06/11 09:47:44;;;;;;;6.78;3.95;;;;;;;;;;5081213;28;20204;-58
2023/06/11 09:50:12;;;;;;;3.83;3.58;;;;;;;;;;5076562;28;20422;-57
2023/06/11 09:52:39;;;;;;;4.07;3.78;;;;;;;;;;5065135;28;20218;-58
2023/06/11 09:55:06;;;;;;;4.03;3.72;;;;;;;;;;5071390;28;20293;-57
2023/06/11 09:57:32;;;;;;;4.55;4.10;;;;;;;;;;5076553;28;20216;-59
2023/06/11 09:59:59;;;;;;;4.70;4.28;;;;;;;;;;5077929;28;20220;-56
2023/06/11 10:02:26;;;;;;;7.13;4.40;;;;;;;;;;5074378;28;20233;-57
2023/06/11 10:04:52;;;;;;;4.97;4.00;;;;;;;;;;5058987;28;20386;-57
2023/06/11 10:07:20;;;;;;;6.50;3.83;;;;;;;;;;5067255;28;20217;-57
2023/06/11 10:09:48;;;;;;;4.72;3.90;;;;;;;;;;5067668;28;20519;-57
2023/06/11 10:12:16;;;;;;;4.22;3.92;;;;;;;;;;5070329;28;20251;-57
2023/06/11 10:14:42;;;;;;;4.75;4.30;;;;;;;;;;5058916;28;20247;-58
2023/06/11 10:17:09;;;;;;;9.70;4.38;;;;;;;;;;5058544;28;20255;-58
2023/06/11 10:19:37;;;;;;;8.05;4.60;;;;;;;;;;5058926;28;20215;-57
2023/06/11 10:22:03;;;;;;;10.13;4.72;;;;;;;;;;5067234;28;20569;-57
2023/06/11 10:24:29;;;;;;;6.45;3.70;;;;;;;;;;5067225;28;20235;-57
2023/06/11 10:27:07;;;;;;;8.23;3.40;;;;;;;;;;5067214;28;20216;-57
2023/06/11 10:29:37;;;;;;;3.33;3.10;;;;;;;;;;5070606;28;20207;-58
2023/06/11 10:32:04;;;;;;;5.53;3.92;;;;;;;;;;5079877;28;20211;-57
2023/06/11 10:34:40;;;;;;;4.82;4.25;;;;;;;;;;5062589;28;20211;-57
2023/06/11 10:37:07;;;;;;;3.90;3.50;;;;;;;;;;5062206;28;20284;-57
2023/06/11 10:39:33;;;;;;;3.72;3.45;;;;;;;;;;5070774;28;20396;-58
2023/06/11 10:42:00;;;;;;;4.10;3.72;;;;;;;;;;5062902;28;20404;-58
2023/06/11 10:44:29;;;;;;;4.20;3.80;;;;;;;;;;5069197;28;20232;-58
2023/06/11 10:46:56;;;;;;;4.57;3.70;;;;;;;;;;5070366;28;20222;-58
2023/06/11 10:49:22;;;;;;;3.95;3.70;;;;;;;;;;5081249;28;20524;-57
2023/06/11 10:51:50;;;;;;;4.30;3.97;;;;;;;;;;5073775;28;20212;-58
2023/06/11 10:54:23;;;;;;;4.20;3.90;;;;;;;;;;5062040;28;20403;-58
2023/06/11 10:56:50;;;;;;;5.75;3.85;;;;;;;;;;5061595;28;20284;-58
2023/06/11 10:59:17;;;;;;;4.22;3.78;;;;;;;;;;5061651;28;20270;-58
2023/06/11 11:01:43;;;;;;;3.97;3.70;;;;;;;;;;5061621;28;20513;-57
2023/06/11 11:04:09;;;;;;;3.33;3.10;;;;;;;;;;5069715;28;20448;-56
2023/06/11 11:06:36;;;;;;;4.30;3.78;;;;;;;;;;5066696;28;20557;-58
2023/06/11 11:09:04;;;;;;;3.83;3.53;;;;;;;;;;5063375;28;20254;-58
2023/06/11 11:11:30;;;;;;;3.80;3.50;;;;;;;;;;5061473;28;20535;-58
2023/06/11 11:13:58;;;;;;;5.38;4.03;;;;;;;;;;5061656;28;20217;-58
2023/06/11 11:16:25;;;;;;;4.20;3.70;;;;;;;;;;5061012;28;20208;-58
2023/06/11 11:18:51;;;;;;;4.63;4.22;;;;;;;;;;5061211;28;20254;-58
2023/06/11 11:21:18;;;;;;;6.97;4.18;;;;;;;;;;5060858;28;20223;-57
2023/06/11 11:23:46;;;;;;;5.97;3.90;;;;;;;;;;5061036;28;20228;-58
2023/06/11 11:26:14;;;;;;;6.80;3.72;;;;;;;;;;5063349;28;20219;-57
2023/06/11 11:28:41;;;;;;;3.55;3.25;;;;;;;;;;5081487;28;20254;-55
2023/06/11 11:31:08;;;;;;;3.88;3.58;;;;;;;;;;5064962;28;20220;-58
2023/06/11 11:33:34;;;;;;;3.80;3.50;;;;;;;;;;5073231;28;20212;-58
2023/06/11 11:36:02;;;;;;;4.28;3.47;;;;;;;;;;5064102;28;20211;-58
2023/06/11 11:38:33;;;;;;;4.18;3.78;;;;;;;;;;5061497;28;20539;-58
2023/06/11 11:40:59;;;;;;;3.60;3.22;;;;;;;;;;5061657;28;20215;-58
2023/06/11 11:43:36;;;;;;;3.97;3.78;;;;;;;;;;5068586;28;20235;-58
2023/06/11 11:46:02;;;;;;;3.40;3.30;;;;;;;;;;5061595;28;20508;-57
2023/06/11 11:48:29;;;;;;;3.97;3.53;;;;;;;;;;5065579;28;20258;-58
2023/06/11 11:51:04;;;;;;;4.03;3.67;;;;;;;;;;5073231;28;20217;-58
2023/06/11 11:53:32;;;;;;;4.90;3.75;;;;;;;;;;5061287;28;20204;-58
2023/06/11 11:55:58;;;;;;;3.92;3.58;;;;;;;;;;5061036;28;20244;-58
2023/06/11 11:58:24;;;;;;;4.13;3.83;;;;;;;;;;5064275;28;20215;-58
2023/06/11 12:00:52;;;;;;;3.85;3.53;;;;;;;;;;5072621;28;20212;-58
2023/06/11 12:03:19;;;;;;;3.38;3.17;;;;;;;;;;5069329;28;20432;-58
2023/06/11 12:05:55;;;;;;;4.45;3.75;;;;;;;;;;5060990;28;20304;-56
2023/06/11 12:08:21;;;;;;;3.55;3.25;;;;;;;;;;5068896;28;20232;-58
2023/06/11 12:10:48;;;;;;;3.65;3.25;;;;;;;;;;5065899;28;20257;-58
2023/06/11 12:13:14;;;;;;;6.47;3.70;;;;;;;;;;5071908;28;20278;-58
2023/06/11 12:15:40;;;;;;;4.25;3.67;;;;;;;;;;5066588;28;20208;-58
2023/06/11 12:18:08;;;;;;;4.93;3.50;;;;;;;;;;5068662;28;20219;-57
2023/06/11 12:20:34;;;;;;;3.92;3.60;;;;;;;;;;5065514;28;20294;-58
2023/06/11 12:23:01;;;;;;;3.78;3.42;;;;;;;;;;5072260;28;20212;-57
2023/06/11 12:25:30;;;;;;;5.43;3.33;;;;;;;;;;5081448;28;20453;-58
2023/06/11 12:27:56;;;;;;;4.22;3.83;;;;;;;;;;5082384;28;20265;-59
2023/06/11 12:30:22;;;;;;;3.95;3.65;;;;;;;;;;5082033;28;20555;-59
2023/06/11 12:32:49;;;;;;;4.38;3.42;;;;;;;;;;5082865;28;20406;-59
2023/06/11 12:35:17;;;;;;;4.95;3.60;;;;;;;;;;5082584;28;20195;-57
2023/06/11 12:37:45;;;;;;;3.90;3.60;;;;;;;;;;5082412;28;20504;-59
2023/06/11 12:40:12;;;;;;;4.22;3.88;;;;;;;;;;5082491;28;20395;-59
2023/06/11 12:42:38;;;;;;;3.78;3.58;;;;;;;;;;5082414;28;20263;-58
2023/06/11 12:45:05;;;;;;;3.70;3.50;;;;;;;;;;5082249;28;20228;-59
2023/06/11 12:47:31;;;;;;;4.97;3.80;;;;;;;;;;5081659;28;20202;-59
2023/06/11 12:49:57;;;;;;;6.57;3.45;;;;;;;;;;5082665;28;20203;-58
2023/06/11 12:52:25;;;;;;;5.45;3.50;;;;;;;;;;5082298;28;20267;-59
2023/06/11 12:54:51;;;;;;;3.67;3.38;;;;;;;;;;5081542;28;20203;-59
2023/06/11 12:57:18;;;;;;;4.00;3.70;;;;;;;;;;5082342;28;20200;-59
2023/06/11 12:59:44;;;;;;;4.88;3.67;;;;;;;;;;5082352;28;20204;-58
2023/06/11 13:02:11;;;;;;;3.38;3.08;;;;;;;;;;5082192;28;20204;-59
2023/06/11 13:04:37;;;;;;;4.85;3.58;;;;;;;;;;5082177;28;20228;-59
2023/06/11 13:07:04;;;;;;;3.30;3.10;;;;;;;;;;5082074;28;20250;-59
2023/06/11 13:09:32;;;;;;;5.45;3.25;;;;;;;;;;5082182;28;20374;-58
2023/06/11 13:11:58;;;;;;;3.45;3.25;;;;;;;;;;5082037;28;20204;-58
2023/06/11 13:14:24;;;;;;;3.72;3.42;;;;;;;;;;5081933;28;20196;-58
2023/06/11 13:16:51;;;;;;;4.03;3.72;;;;;;;;;;5082002;28;20206;-57
2023/06/11 13:19:18;;;;;;;5.18;4.65;;;;;;;;;;5082013;28;20200;-59
2023/06/11 13:21:44;;;;;;;11.82;8.38;;;;;;;;;;5082002;28;20245;-59
2023/06/11 13:24:10;;;;;;;9.25;7.57;;;;;;;;;;5081765;28;20230;-59
2023/06/11 13:26:38;;;;;;;5.40;3.92;;;;;;;;;;5081602;28;20196;-59
2023/06/11 13:29:04;;;;;;;3.70;3.42;;;;;;;;;;5081818;28;20228;-59
2023/06/11 13:31:31;;;;;;;6.07;5.57;;;;;;;;;;5082109;28;20203;-59
2023/06/11 13:33:57;;;;;;;6.05;4.35;;;;;;;;;;5081985;28;20196;-59
2023/06/11 13:36:23;;;;;;;9.20;5.57;;;;;;;;;;5081542;28;20203;-59
2023/06/11 13:38:49;;;;;;;3.90;3.60;;;;;;;;;;5081820;28;20238;-59
2023/06/11 13:41:16;;;;;;;3.97;3.67;;;;;;;;;;5081590;28;20253;-59
2023/06/11 13:43:43;;;;;;;3.50;3.30;;;;;;;;;;5081716;28;20203;-59
2023/06/11 13:46:10;;;;;;;4.10;3.72;;;;;;;;;;5081857;28;20200;-59
2023/06/11 13:48:37;;;;;;;4.53;4.18;;;;;;;;;;5081566;28;20207;-59
2023/06/11 13:51:03;;;;;;;3.78;3.40;;;;;;;;;;5081786;28;20207;-58
2023/06/11 13:53:29;;;;;;;3.88;3.60;;;;;;;;;;5073446;28;20200;-59
2023/06/11 13:55:55;;;;;;;3.45;3.10;;;;;;;;;;5081566;28;20208;-58
2023/06/11 13:58:22;;;;;;;3.83;3.50;;;;;;;;;;5081555;28;20204;-58
2023/06/11 14:00:49;;;;;;;5.43;3.80;;;;;;;;;;5081739;28;20200;-59
2023/06/11 14:03:16;;;;;;;3.63;3.33;;;;;;;;;;5081576;28;20515;-59
2023/06/11 14:05:42;;;;;;;3.40;3.20;;;;;;;;;;5083700;28;20260;-59
2023/06/11 14:08:13;;;;;;;5.10;3.40;;;;;;;;;;5084948;28;20239;-59
2023/06/11 14:10:39;;;;;;;6.43;3.50;;;;;;;;;;5085619;28;20250;-59
2023/06/11 14:13:06;;;;;;;3.95;3.50;;;;;;;;;;5085371;28;20200;-59
2023/06/11 14:15:32;;;;;;;5.93;3.50;;;;;;;;;;5085327;28;20231;-59
2023/06/11 14:18:00;;;;;;;3.88;3.65;;;;;;;;;;5085188;28;20200;-58
2023/06/11 14:20:26;;;;;;;9.40;3.50;;;;;;;;;;5084993;28;20204;-59
2023/06/11 14:22:52;;;;;;;4.53;3.58;;;;;;;;;;5084971;28;20445;-59
2023/06/11 14:25:19;;;;;;;3.72;3.42;;;;;;;;;;5085232;28;20227;-58
2023/06/11 14:27:45;;;;;;;4.90;3.90;;;;;;;;;;5084709;28;20220;-59
2023/06/11 14:30:12;;;;;;;3.72;3.53;;;;;;;;;;5085142;28;20207;-59
2023/06/11 14:32:38;;;;;;;3.67;3.38;;;;;;;;;;5084986;28;20196;-59
2023/06/11 14:35:07;;;;;;;3.47;3.38;;;;;;;;;;5084940;28;20215;-59
2023/06/11 14:37:33;;;;;;;3.50;3.35;;;;;;;;;;5076844;28;20199;-57
2023/06/11 14:40:00;;;;;;;5.88;3.55;;;;;;;;;;5084724;28;20200;-58
2023/06/11 14:42:26;;;;;;;3.42;3.30;;;;;;;;;;5084595;28;20206;-58